Rosepine, Louisiana
Current Conditions -  °F | °C
As of 4:35 AM on Saturday 22 Nov 2014 (Local Time) from KDRI Reporting Station
Clear Clear  
Wind Chill: 55°   Ceiling: Unl
Heat Index: 55°   Visibility: 10mi
Dew Point: 50°   Wind: 3mph
Humidity: 83%   Direction: 90°E
Pressure: 30.19"   Gusts: NA
Location:  30.92°N, 93.28°W
Report Text: KDRI 221035Z AUTO 09003KT 10SM CLR 13/10 A3019 RMK AO2 LTG DSNT NW T01260098
Loading
Personal Weather Stations






























Interactive Weather Map New forecast layout! Learn more

10-Day Weather Forecast

Advertisements
Track Severe Weather on mobile